Saint-Cesaire, Canada
Current Conditions -  °F | °C
As of 4:00 AM on Wednesday 22 Oct 2014 (Local Time) from CYHU Reporting Station
Overcast Overcast  
Wind Chill: 37°   Ceiling: 4000
Heat Index: 45°   Visibility: 9mi
Dew Point: 36°   Wind: 17mph
Humidity: 71%   Direction: 50°NE
Pressure: 30.18"   Gusts: 24mph
Location:  45.4°N, 73°W
Report Text: CYHU 220800Z AUTO 05015G21KT 9SM BKN040 OVC050 07/02 A3018 RMK SLP221
Loading
Personal Weather Stations






























Interactive Weather Map
Tropical Storm Tracking
New forecast layout! Learn more

10-Day Weather Forecast

Advertisements
Track Severe Weather on mobile